Time,TemperatureF,DewpointF,PressureIn,WindDirection,WindDirectionDegrees,WindSpeedMPH,WindSpeedGustMPH,Humidity,HourlyPrecipIn,Conditions,Clouds,dailyrainin,SoftwareType,DateUTC
2013-03-27 00:03:00,27.0,21.0,30.39,WSW,251,1.0,6.0,78,0.00,,,0.07,,2013-03-27 04:03:00,
2013-03-27 00:13:00,27.0,21.0,30.39,WSW,251,1.0,6.0,78,0.00,,,0.07,,2013-03-27 04:13:00,
2013-03-27 00:23:00,27.0,21.0,30.39,SSW,198,1.0,3.0,78,0.00,,,0.07,,2013-03-27 04:23:00,
2013-03-27 00:33:00,27.0,22.0,30.39,ENE,68,2.0,14.0,80,0.00,,,0.07,,2013-03-27 04:33:00,
2013-03-27 00:42:00,27.0,22.0,30.39,ENE,68,2.0,14.0,80,0.00,,,0.07,,2013-03-27 04:42:00,
2013-03-27 00:52:00,27.0,21.0,30.39,North,1,0.0,7.0,78,0.00,,,0.07,,2013-03-27 04:52:00,
2013-03-27 01:03:00,27.0,21.0,30.40,East,99,0.0,3.0,78,0.00,,,0.07,,2013-03-27 05:03:00,
2013-03-27 01:13:00,27.0,21.0,30.40,East,99,0.0,3.0,78,0.00,,,0.07,,2013-03-27 05:13:00,
2013-03-27 01:23:00,27.0,22.0,30.38,SE,146,0.0,5.0,80,0.00,,,0.07,,2013-03-27 05:23:00,
2013-03-27 01:33:00,27.0,21.0,30.39,ENE,76,0.0,5.0,79,0.00,,,0.07,,2013-03-27 05:33:00,
2013-03-27 01:42:00,27.0,21.0,30.39,ENE,76,0.0,5.0,79,0.00,,,0.07,,2013-03-27 05:42:00,
2013-03-27 01:52:00,27.0,22.0,30.39,NE,54,0.0,2.0,80,0.00,,,0.07,,2013-03-27 05:52:00,
2013-03-27 02:02:00,27.0,22.0,30.38,WNW,288,3.0,11.0,82,0.00,,,0.07,,2013-03-27 06:02:00,
2013-03-27 02:12:00,27.0,22.0,30.38,WNW,288,3.0,11.0,82,0.00,,,0.07,,2013-03-27 06:12:00,
2013-03-27 02:22:00,27.0,21.0,30.38,West,281,2.0,7.0,79,0.00,,,0.07,,2013-03-27 06:22:00,
2013-03-27 02:32:00,27.0,22.0,30.38,West,264,5.0,11.0,80,0.00,,,0.07,,2013-03-27 06:32:00,
2013-03-27 02:42:00,27.0,22.0,30.38,West,264,5.0,11.0,80,0.00,,,0.07,,2013-03-27 06:42:00,
2013-03-27 02:52:00,27.0,21.0,30.38,WNW,300,9.0,14.0,78,0.00,,,0.07,,2013-03-27 06:52:00,
2013-03-27 03:02:00,27.0,21.0,30.38,West,273,9.0,14.0,79,0.00,,,0.07,,2013-03-27 07:02:00,
2013-03-27 03:12:00,27.0,21.0,30.38,West,273,9.0,14.0,79,0.00,,,0.07,,2013-03-27 07:12:00,
2013-03-27 03:22:00,27.0,21.0,30.38,WSW,246,6.0,12.0,78,0.00,,,0.07,,2013-03-27 07:22:00,
2013-03-27 03:32:00,27.0,21.0,30.37,NW,312,7.0,14.0,78,0.00,,,0.07,,2013-03-27 07:32:00,
2013-03-27 03:42:00,27.0,21.0,30.37,NW,312,7.0,14.0,78,0.00,,,0.07,,2013-03-27 07:42:00,
2013-03-27 03:53:00,27.0,21.0,30.36,NNW,343,3.0,14.0,77,0.00,,,0.07,,2013-03-27 07:53:00,
2013-03-27 04:02:00,26.0,20.0,30.36,East,79,3.0,10.0,77,0.00,,,0.07,,2013-03-27 08:02:00,
2013-03-27 04:13:00,26.0,20.0,30.36,East,79,3.0,10.0,77,0.00,,,0.07,,2013-03-27 08:13:00,
2013-03-27 04:22:00,26.0,20.0,30.37,SSW,210,0.0,4.0,77,0.00,,,0.07,,2013-03-27 08:22:00,
2013-03-27 04:32:00,26.0,19.0,30.37,WNW,289,10.0,16.0,75,0.00,,,0.07,,2013-03-27 08:32:00,
2013-03-27 04:43:00,26.0,19.0,30.37,WNW,289,10.0,16.0,75,0.00,,,0.07,,2013-03-27 08:43:00,
2013-03-27 04:52:00,26.0,19.0,30.37,WSW,252,1.0,14.0,76,0.00,,,0.07,,2013-03-27 08:52:00,
2013-03-27 05:02:00,26.0,19.0,30.36,ESE,108,0.0,3.0,76,0.00,,,0.07,,2013-03-27 09:02:00,
2013-03-27 05:12:00,26.0,19.0,30.36,ESE,108,0.0,3.0,76,0.00,,,0.07,,2013-03-27 09:12:00,
2013-03-27 05:22:00,25.0,19.0,30.37,NW,322,0.0,4.0,76,0.00,,,0.07,,2013-03-27 09:22:00,
2013-03-27 05:33:00,25.0,18.0,30.37,WSW,244,2.0,5.0,74,0.00,,,0.07,,2013-03-27 09:33:00,
2013-03-27 05:42:00,25.0,18.0,30.37,WSW,244,2.0,5.0,74,0.00,,,0.07,,2013-03-27 09:42:00,
2013-03-27 05:52:00,24.0,18.0,30.38,West,263,0.0,3.0,76,0.00,,,0.07,,2013-03-27 09:52:00,
2013-03-27 06:03:00,24.0,18.0,30.38,NW,313,1.0,5.0,76,0.00,,,0.07,,2013-03-27 10:03:00,
2013-03-27 06:13:00,24.0,18.0,30.38,NW,313,1.0,5.0,76,0.00,,,0.07,,2013-03-27 10:13:00,
2013-03-27 06:23:00,24.0,18.0,30.38,NW,313,1.0,5.0,76,0.00,,,0.07,,2013-03-27 10:23:00,
2013-03-27 06:32:00,24.0,18.0,30.39,West,277,2.0,6.0,76,0.00,,,0.07,,2013-03-27 10:32:00,
2013-03-27 06:42:00,24.0,18.0,30.39,West,277,2.0,6.0,76,0.00,,,0.07,,2013-03-27 10:42:00,
2013-03-27 06:53:00,24.0,17.0,30.39,WNW,285,1.0,5.0,75,0.00,,,0.07,,2013-03-27 10:53:00,
2013-03-27 07:03:00,24.0,17.0,30.39,WSW,244,0.0,4.0,75,0.00,,,0.07,,2013-03-27 11:03:00,
2013-03-27 07:12:00,24.0,17.0,30.39,WSW,244,0.0,4.0,75,0.00,,,0.07,,2013-03-27 11:12:00,
2013-03-27 07:22:00,24.0,17.0,30.39,WSW,244,0.0,2.0,75,0.00,,,0.07,,2013-03-27 11:22:00,
2013-03-27 07:32:00,23.0,17.0,30.40,WSW,244,0.0,3.0,76,0.00,,,0.07,,2013-03-27 11:32:00,
2013-03-27 07:42:00,23.0,17.0,30.40,WSW,244,0.0,3.0,76,0.00,,,0.07,,2013-03-27 11:42:00,
2013-03-27 07:52:00,23.0,17.0,30.40,WSW,244,0.0,2.0,77,0.00,,,0.07,,2013-03-27 11:52:00,
2013-03-27 08:02:00,23.0,17.0,30.40,WSW,244,0.0,0.0,78,0.00,,,0.07,,2013-03-27 12:02:00,
2013-03-27 08:12:00,23.0,17.0,30.40,WSW,244,0.0,0.0,78,0.00,,,0.07,,2013-03-27 12:12:00,
2013-03-27 08:23:00,23.0,18.0,30.41,ESE,123,0.0,3.0,81,0.00,,,0.07,,2013-03-27 12:23:00,
2013-03-27 08:32:00,24.0,19.0,30.41,ESE,123,0.0,2.0,80,0.00,,,0.07,,2013-03-27 12:32:00,
2013-03-27 08:43:00,24.0,19.0,30.41,ESE,123,0.0,2.0,80,0.00,,,0.07,,2013-03-27 12:43:00,
2013-03-27 08:52:00,24.0,19.0,30.41,ESE,123,0.0,2.0,80,0.00,,,0.07,,2013-03-27 12:52:00,
2013-03-27 09:02:00,26.0,20.0,30.41,ENE,67,1.0,4.0,79,0.00,,,0.07,,2013-03-27 13:02:00,
2013-03-27 09:12:00,26.0,20.0,30.41,ENE,67,1.0,4.0,79,0.00,,,0.07,,2013-03-27 13:12:00,
2013-03-27 09:22:00,27.0,21.0,30.41,NNW,342,2.0,8.0,79,0.00,,,0.07,,2013-03-27 13:22:00,
2013-03-27 09:32:00,28.0,21.0,30.42,ENE,75,0.0,6.0,76,0.00,,,0.07,,2013-03-27 13:32:00,
2013-03-27 09:42:00,28.0,21.0,30.42,ENE,75,0.0,6.0,76,0.00,,,0.07,,2013-03-27 13:42:00,
2013-03-27 09:52:00,29.0,21.0,30.42,NE,55,2.0,8.0,72,0.00,,,0.07,,2013-03-27 13:52:00,
2013-03-27 10:02:00,29.0,21.0,30.43,NE,51,0.0,6.0,72,0.00,,,0.07,,2013-03-27 14:02:00,
2013-03-27 10:12:00,29.0,21.0,30.43,NE,51,0.0,6.0,72,0.00,,,0.07,,2013-03-27 14:12:00,
2013-03-27 10:22:00,29.0,22.0,30.43,ENE,75,0.0,4.0,74,0.00,,,0.07,,2013-03-27 14:22:00,
2013-03-27 10:32:00,30.0,21.0,30.43,SSW,203,1.0,6.0,69,0.00,,,0.07,,2013-03-27 14:32:00,
2013-03-27 10:42:00,30.0,21.0,30.43,SSW,203,1.0,6.0,69,0.00,,,0.07,,2013-03-27 14:42:00,
2013-03-27 10:52:00,30.0,23.0,30.43,WNW,297,3.0,5.0,76,0.00,,,0.07,,2013-03-27 14:52:00,
2013-03-27 11:03:00,30.0,22.0,30.43,SW,220,0.0,7.0,73,0.00,,,0.07,,2013-03-27 15:03:00,
2013-03-27 11:12:00,30.0,22.0,30.43,SW,220,0.0,7.0,73,0.00,,,0.07,,2013-03-27 15:12:00,
2013-03-27 11:23:00,30.0,22.0,30.42,North,5,1.0,7.0,71,0.00,,,0.07,,2013-03-27 15:23:00,
2013-03-27 11:33:00,31.0,22.0,30.42,NNE,26,0.0,4.0,70,0.00,,,0.07,,2013-03-27 15:33:00,
2013-03-27 11:43:00,31.0,22.0,30.42,NNE,26,0.0,4.0,70,0.00,,,0.07,,2013-03-27 15:43:00,
2013-03-27 11:52:00,32.0,22.0,30.43,SW,226,6.0,9.0,67,0.00,,,0.07,,2013-03-27 15:52:00,
2013-03-27 12:03:00,32.0,22.0,30.43,SSW,196,4.0,12.0,67,0.00,,,0.07,,2013-03-27 16:03:00,
2013-03-27 12:13:00,32.0,22.0,30.43,SSW,196,4.0,12.0,67,0.00,,,0.07,,2013-03-27 16:13:00,
2013-03-27 12:23:00,33.0,22.0,30.43,NNW,345,4.0,11.0,64,0.00,,,0.07,,2013-03-27 16:23:00,
2013-03-27 12:33:00,33.0,23.0,30.43,NW,316,3.0,14.0,66,0.00,,,0.06,,2013-03-27 16:33:00,
2013-03-27 12:42:00,33.0,23.0,30.43,NW,316,3.0,14.0,66,0.00,,,0.06,,2013-03-27 16:42:00,
2013-03-27 12:52:00,34.0,23.0,30.42,SW,233,3.0,12.0,63,0.00,,,0.06,,2013-03-27 16:52:00,
2013-03-27 13:03:00,35.0,24.0,30.42,West,266,5.0,9.0,63,0.00,,,0.06,,2013-03-27 17:03:00,
2013-03-27 13:12:00,35.0,24.0,30.42,West,266,5.0,9.0,63,0.00,,,0.06,,2013-03-27 17:12:00,
2013-03-27 13:22:00,36.0,24.0,30.42,SW,230,2.0,8.0,61,0.01,,,0.07,,2013-03-27 17:22:00,
2013-03-27 13:32:00,36.0,23.0,30.42,NNW,335,3.0,10.0,58,0.01,,,0.05,,2013-03-27 17:32:00,
2013-03-27 13:44:00,36.0,23.0,30.42,NNW,335,3.0,10.0,58,0.01,,,0.05,,2013-03-27 17:44:00,
2013-03-27 13:52:00,37.0,21.0,30.42,NNE,33,2.0,14.0,53,0.01,,,0.05,,2013-03-27 17:52:00,
2013-03-27 14:03:00,38.0,24.0,30.41,West,263,3.0,6.0,57,0.01,,,0.05,,2013-03-27 18:03:00,
2013-03-27 14:12:00,38.0,24.0,30.41,West,263,3.0,6.0,57,0.01,,,0.05,,2013-03-27 18:12:00,
2013-03-27 14:23:00,39.0,22.0,30.41,NE,34,4.0,10.0,51,0.00,,,0.05,,2013-03-27 18:23:00,
2013-03-27 14:32:00,40.0,26.0,30.40,NW,307,8.0,11.0,56,0.00,,,0.05,,2013-03-27 18:32:00,
2013-03-27 14:42:00,40.0,26.0,30.40,NW,307,8.0,11.0,56,0.00,,,0.05,,2013-03-27 18:42:00,
2013-03-27 14:52:00,41.0,28.0,30.40,NNW,340,2.0,8.0,59,0.00,,,0.05,,2013-03-27 18:52:00,
2013-03-27 15:03:00,41.0,25.0,30.39,NW,314,9.0,16.0,53,0.00,,,0.05,,2013-03-27 19:03:00,
2013-03-27 15:12:00,41.0,25.0,30.39,NW,314,9.0,16.0,53,0.00,,,0.05,,2013-03-27 19:12:00,
2013-03-27 15:22:00,41.0,25.0,30.39,West,279,9.0,14.0,53,0.00,,,0.05,,2013-03-27 19:22:00,
2013-03-27 15:32:00,41.0,25.0,30.39,West,277,10.0,15.0,53,0.00,,,0.04,,2013-03-27 19:32:00,
2013-03-27 15:42:00,41.0,25.0,30.39,West,277,10.0,15.0,53,0.00,,,0.04,,2013-03-27 19:42:00,
2013-03-27 15:52:00,42.0,27.0,30.39,West,262,8.0,15.0,56,0.00,,,0.04,,2013-03-27 19:52:00,
2013-03-27 16:03:00,42.0,23.0,30.38,NW,313,7.0,13.0,46,0.00,,,0.04,,2013-03-27 20:03:00,
2013-03-27 16:12:00,42.0,23.0,30.38,NW,313,7.0,13.0,46,0.00,,,0.04,,2013-03-27 20:12:00,
2013-03-27 16:22:00,43.0,31.0,30.38,NW,310,6.0,11.0,62,0.00,,,0.04,,2013-03-27 20:22:00,
2013-03-27 16:32:00,43.0,26.0,30.38,WSW,243,6.0,12.0,51,0.00,,,0.03,,2013-03-27 20:32:00,
2013-03-27 16:42:00,43.0,26.0,30.38,WSW,243,6.0,12.0,51,0.00,,,0.03,,2013-03-27 20:42:00,
2013-03-27 16:52:00,44.0,27.0,30.37,WNW,300,8.0,12.0,51,0.00,,,0.03,,2013-03-27 20:52:00,
2013-03-27 17:02:00,44.0,26.0,30.36,WNW,302,3.0,9.0,49,0.01,,,0.04,,2013-03-27 21:02:00,
2013-03-27 17:12:00,44.0,26.0,30.36,WNW,302,3.0,9.0,49,0.01,,,0.04,,2013-03-27 21:12:00,
2013-03-27 17:22:00,44.0,26.0,30.36,WNW,301,3.0,8.0,48,0.01,,,0.04,,2013-03-27 21:22:00,
2013-03-27 17:32:00,44.0,27.0,30.36,North,360,3.0,10.0,50,0.01,,,0.03,,2013-03-27 21:32:00,
2013-03-27 17:43:00,44.0,27.0,30.36,North,360,3.0,10.0,50,0.01,,,0.03,,2013-03-27 21:43:00,
2013-03-27 17:52:00,44.0,23.0,30.37,NW,316,7.0,15.0,44,0.01,,,0.03,,2013-03-27 21:52:00,
2013-03-27 18:03:00,43.0,25.0,30.37,WSW,249,6.0,13.0,48,0.00,,,0.03,,2013-03-27 22:03:00,
2013-03-27 18:12:00,43.0,25.0,30.37,WSW,249,6.0,13.0,48,0.00,,,0.03,,2013-03-27 22:12:00,
2013-03-27 18:23:00,42.0,24.0,30.38,WSW,250,9.0,12.0,48,0.00,,,0.03,,2013-03-27 22:23:00,
2013-03-27 18:33:00,42.0,28.0,30.38,WNW,284,6.0,13.0,57,0.00,,,0.02,,2013-03-27 22:33:00,
2013-03-27 18:42:00,42.0,28.0,30.38,WNW,284,6.0,13.0,57,0.00,,,0.02,,2013-03-27 22:42:00,
2013-03-27 18:52:00,41.0,24.0,30.38,West,273,10.0,17.0,51,0.00,,,0.02,,2013-03-27 22:52:00,
2013-03-27 19:02:00,39.0,21.0,30.39,West,264,10.0,17.0,49,0.00,,,0.02,,2013-03-27 23:02:00,
2013-03-27 19:12:00,39.0,21.0,30.39,West,264,10.0,17.0,49,0.00,,,0.02,,2013-03-27 23:12:00,
2013-03-27 19:22:00,37.0,21.0,30.39,West,268,10.0,15.0,51,0.00,,,0.02,,2013-03-27 23:22:00,
2013-03-27 19:32:00,37.0,23.0,30.39,SSW,203,3.0,7.0,56,0.00,,,0.02,,2013-03-27 23:32:00,
2013-03-27 19:42:00,37.0,23.0,30.39,SSW,203,3.0,7.0,56,0.00,,,0.02,,2013-03-27 23:42:00,
2013-03-27 19:52:00,37.0,23.0,30.39,SSW,203,3.0,7.0,56,0.00,,,0.02,,2013-03-27 23:52:00,
2013-03-27 20:02:00,36.0,21.0,30.39,SW,216,0.0,5.0,53,0.00,,,0.02,,2013-03-28 00:02:00,
2013-03-27 20:12:00,36.0,21.0,30.39,SW,216,0.0,5.0,53,0.00,,,0.02,,2013-03-28 00:12:00,
2013-03-27 20:22:00,35.0,21.0,30.39,NW,311,2.0,6.0,57,0.00,,,0.02,,2013-03-28 00:22:00,
2013-03-27 20:33:00,34.0,21.0,30.40,West,272,4.0,7.0,58,0.00,,,0.02,,2013-03-28 00:33:00,
2013-03-27 20:43:00,34.0,21.0,30.40,West,272,4.0,7.0,58,0.00,,,0.02,,2013-03-28 00:43:00,
2013-03-27 20:52:00,34.0,21.0,30.40,West,272,4.0,7.0,58,0.00,,,0.02,,2013-03-28 00:52:00,
2013-03-27 21:02:00,34.0,20.0,30.40,NW,310,0.0,4.0,57,0.00,,,0.02,,2013-03-28 01:02:00,
2013-03-27 21:12:00,34.0,20.0,30.40,NW,310,0.0,4.0,57,0.00,,,0.02,,2013-03-28 01:12:00,
2013-03-27 21:22:00,34.0,20.0,30.40,NNE,22,0.0,4.0,57,0.00,,,0.02,,2013-03-28 01:22:00,
2013-03-27 21:32:00,33.0,19.0,30.40,WNW,288,0.0,3.0,56,0.00,,,0.02,,2013-03-28 01:32:00,
2013-03-27 21:42:00,33.0,19.0,30.40,WNW,288,0.0,3.0,56,0.00,,,0.02,,2013-03-28 01:42:00,
2013-03-27 21:52:00,33.0,19.0,30.40,NNW,330,0.0,1.0,56,0.00,,,0.02,,2013-03-28 01:52:00,
2013-03-27 22:03:00,33.0,20.0,30.40,South,181,0.0,3.0,58,0.00,,,0.02,,2013-03-28 02:03:00,
2013-03-27 22:12:00,33.0,20.0,30.40,South,181,0.0,3.0,58,0.00,,,0.02,,2013-03-28 02:12:00,
2013-03-27 22:22:00,32.0,19.0,30.41,South,181,0.0,2.0,57,0.00,,,0.02,,2013-03-28 02:22:00,
2013-03-27 22:33:00,32.0,20.0,30.41,SW,230,1.0,4.0,60,0.00,,,0.02,,2013-03-28 02:33:00,
2013-03-27 22:42:00,32.0,20.0,30.41,SW,230,1.0,4.0,60,0.00,,,0.02,,2013-03-28 02:42:00,
2013-03-27 22:52:00,32.0,20.0,30.41,SW,230,1.0,4.0,60,0.00,,,0.02,,2013-03-28 02:52:00,
2013-03-27 23:02:00,32.0,20.0,30.42,SW,230,2.0,3.0,60,0.00,,,0.02,,2013-03-28 03:02:00,
2013-03-27 23:12:00,32.0,20.0,30.42,SW,230,2.0,3.0,60,0.00,,,0.02,,2013-03-28 03:12:00,
2013-03-27 23:22:00,31.0,19.0,30.41,WSW,238,2.0,5.0,61,0.00,,,0.02,,2013-03-28 03:22:00,
2013-03-27 23:33:00,32.0,20.0,30.41,WSW,252,2.0,5.0,60,0.00,,,0.02,,2013-03-28 03:33:00,
2013-03-27 23:43:00,32.0,20.0,30.41,WSW,252,2.0,5.0,60,0.00,,,0.02,,2013-03-28 03:43:00,
2013-03-27 23:52:00,31.0,20.0,30.41,WSW,252,1.0,4.0,62,0.00,,,0.02,,2013-03-28 03:52:00,